createdAt,value
2018-02-16T00:02:19.556Z,52.63
2018-02-16T00:04:49.146Z,52.89
2018-02-16T00:07:18.958Z,52.77
2018-02-16T00:09:48.399Z,52.72
2018-02-16T00:12:18.522Z,51.96
2018-02-16T00:14:48.015Z,52.37
2018-02-16T00:17:17.805Z,52.24
2018-02-16T00:19:47.844Z,52.48
2018-02-16T00:22:18.087Z,52.77
2018-02-16T00:24:47.543Z,53.09
2018-02-16T00:27:17.661Z,52.67
2018-02-16T00:29:47.236Z,52.27
2018-02-16T00:32:16.555Z,52.30
2018-02-16T00:34:46.079Z,51.65
2018-02-16T00:37:15.448Z,52.56
2018-02-16T00:39:45.259Z,53.69
2018-02-16T00:42:15.992Z,54.03
2018-02-16T00:44:45.583Z,54.00
2018-02-16T00:47:15.106Z,54.17
2018-02-16T00:49:44.762Z,54.17
2018-02-16T00:52:14.886Z,53.98
2018-02-16T00:54:44.287Z,54.24
2018-02-16T00:57:13.736Z,53.91
2018-02-16T00:59:43.111Z,54.03
2018-02-16T01:02:12.752Z,54.34
2018-02-16T01:04:42.182Z,54.16
2018-02-16T01:07:11.709Z,54.46
2018-02-16T01:09:41.292Z,54.32
2018-02-16T01:12:11.164Z,54.23
2018-02-16T01:14:40.478Z,54.55
2018-02-16T01:17:09.926Z,54.60
2018-02-16T01:19:39.525Z,54.55
2018-02-16T01:22:08.932Z,54.40
2018-02-16T01:24:38.412Z,54.15
2018-02-16T01:27:07.835Z,54.63
2018-02-16T01:29:45.122Z,55.14
2018-02-16T01:32:14.448Z,55.16
2018-02-16T01:34:44.148Z,54.68
2018-02-16T01:37:13.899Z,55.08
2018-02-16T01:39:43.496Z,54.20
2018-02-16T01:42:12.862Z,54.67
2018-02-16T01:44:42.199Z,55.12
2018-02-16T01:47:11.662Z,55.10
2018-02-16T01:49:58.618Z,54.45
2018-02-16T01:52:28.371Z,55.09
2018-02-16T01:54:58.729Z,55.21
2018-02-16T01:57:28.106Z,55.89
2018-02-16T01:59:59.288Z,55.49
2018-02-16T02:02:28.871Z,55.00
2018-02-16T02:04:58.458Z,54.79
2018-02-16T02:07:27.722Z,54.48
2018-02-16T02:09:57.248Z,54.65
2018-02-16T02:12:26.778Z,54.75
2018-02-16T02:14:56.237Z,54.87
2018-02-16T02:17:25.751Z,55.53
2018-02-16T02:19:55.234Z,56.12
2018-02-16T02:22:24.786Z,55.53
2018-02-16T02:24:55.050Z,53.89
2018-02-16T02:27:24.384Z,54.22
2018-02-16T02:29:53.795Z,54.58
2018-02-16T02:32:23.954Z,54.53
2018-02-16T02:34:53.597Z,54.94
2018-02-16T02:37:23.863Z,54.98
2018-02-16T02:39:53.418Z,53.80
2018-02-16T02:42:31.706Z,54.06
2018-02-16T02:45:01.268Z,54.00
2018-02-16T02:47:30.627Z,53.32
2018-02-16T02:50:00.113Z,53.52
2018-02-16T02:52:30.306Z,53.33
2018-02-16T02:54:59.757Z,53.66
2018-02-16T02:57:29.098Z,53.73
2018-02-16T02:59:58.511Z,54.49
2018-02-16T03:02:27.839Z,54.55
2018-02-16T03:04:57.285Z,53.81
2018-02-16T03:07:27.140Z,53.72
2018-02-16T03:09:56.691Z,54.74
2018-02-16T03:12:27.668Z,55.31
2018-02-16T03:14:57.194Z,55.39
2018-02-16T03:17:26.556Z,54.63
2018-02-16T03:19:55.944Z,54.38
2018-02-16T03:22:25.807Z,53.90
2018-02-16T03:24:55.146Z,53.82
2018-02-16T03:27:24.683Z,53.77
2018-02-16T03:29:54.134Z,54.08
2018-02-16T03:32:23.465Z,53.97
2018-02-16T03:34:53.215Z,54.29
2018-02-16T03:37:22.582Z,53.73
2018-02-16T03:39:51.926Z,53.57
2018-02-16T03:42:22.180Z,53.02
2018-02-16T03:44:51.956Z,53.05
2018-02-16T03:47:21.399Z,53.48
2018-02-16T03:49:51.675Z,52.69
2018-02-16T03:52:21.055Z,52.59
2018-02-16T03:54:51.021Z,53.32
2018-02-16T03:57:20.910Z,54.51
2018-02-16T03:59:50.483Z,54.71
2018-02-16T04:02:20.398Z,55.74
2018-02-16T04:04:49.879Z,55.79
2018-02-16T04:07:19.310Z,54.60
2018-02-16T04:09:49.010Z,53.64
2018-02-16T04:12:18.370Z,53.70
2018-02-16T04:14:48.556Z,54.50
2018-02-16T04:17:17.939Z,54.93
2018-02-16T04:19:47.287Z,54.40
2018-02-16T04:22:16.843Z,54.99
2018-02-16T04:24:46.220Z,55.65
2018-02-16T04:27:16.208Z,56.05
2018-02-16T04:29:46.355Z,56.23
2018-02-16T04:32:15.667Z,56.56
2018-02-16T04:37:46.347Z,56.22
2018-02-16T04:40:15.928Z,56.25
2018-02-16T04:42:45.282Z,56.12
2018-02-16T04:45:14.667Z,56.16
2018-02-16T04:47:46.826Z,55.91
2018-02-16T04:50:16.116Z,55.66
2018-02-16T04:52:45.676Z,55.51
2018-02-16T04:55:15.018Z,55.60
2018-02-16T04:57:44.496Z,55.23
2018-02-16T05:00:13.998Z,55.42
2018-02-16T05:02:43.360Z,55.74
2018-02-16T05:05:12.647Z,55.50
2018-02-16T05:07:42.337Z,55.38
2018-02-16T05:10:11.685Z,56.76
2018-02-16T05:12:41.386Z,57.56
2018-02-16T05:15:10.825Z,57.23
2018-02-16T05:17:40.458Z,57.59
2018-02-16T05:20:10.665Z,57.42
2018-02-16T05:22:40.205Z,56.22
2018-02-16T05:25:10.173Z,56.17
2018-02-16T05:27:40.028Z,56.68
2018-02-16T05:30:11.585Z,56.62
2018-02-16T05:32:41.016Z,56.42
2018-02-16T05:35:11.056Z,56.58
2018-02-16T05:37:40.414Z,56.17
2018-02-16T05:40:10.275Z,55.78
2018-02-16T05:57:23.913Z,56.26
2018-02-16T05:59:53.409Z,57.70
2018-02-16T06:02:23.930Z,57.32
2018-02-16T06:04:53.619Z,56.72
2018-02-16T06:07:23.021Z,56.42
2018-02-16T06:09:54.207Z,56.46
2018-02-16T06:12:24.504Z,55.19
2018-02-16T06:14:54.771Z,54.83
2018-02-16T06:17:25.283Z,54.67
2018-02-16T06:19:54.746Z,54.92
2018-02-16T06:22:24.395Z,55.34
2018-02-16T06:24:53.916Z,55.27
2018-02-16T06:27:24.311Z,55.24
2018-02-16T06:29:56.170Z,55.04
2018-02-16T06:32:26.979Z,54.84
2018-02-16T06:34:56.763Z,54.78
2018-02-16T06:37:27.238Z,54.94
2018-02-16T06:39:56.797Z,55.08
2018-02-16T06:42:26.220Z,55.22
2018-02-16T06:44:55.770Z,55.14
2018-02-16T06:47:25.160Z,55.03
2018-02-16T06:49:54.902Z,54.94
2018-02-16T06:52:24.978Z,54.72
2018-02-16T06:54:55.592Z,54.65
2018-02-16T06:57:25.517Z,54.10
2018-02-16T06:59:55.772Z,54.76
2018-02-16T07:02:25.225Z,54.12
2018-02-16T07:04:54.670Z,54.26
2018-02-16T07:07:34.998Z,53.53
2018-02-16T07:10:05.372Z,53.83
2018-02-16T07:12:34.699Z,54.46
2018-02-16T07:15:04.289Z,54.39
2018-02-16T07:17:34.352Z,53.00
2018-02-16T07:20:03.899Z,53.02
2018-02-16T07:22:37.252Z,52.81
2018-02-16T07:25:06.907Z,52.23
2018-02-16T07:27:36.675Z,51.78
2018-02-16T07:30:07.194Z,51.59
2018-02-16T07:32:36.999Z,52.10
2018-02-16T07:35:06.557Z,52.52
2018-02-16T07:37:37.159Z,52.95
2018-02-16T07:40:06.796Z,51.88
2018-02-16T07:42:36.530Z,52.04
2018-02-16T07:45:06.012Z,52.14
2018-02-16T07:47:35.704Z,51.68
2018-02-16T07:50:06.141Z,50.84
2018-02-16T07:52:37.201Z,51.10
2018-02-16T07:55:08.317Z,51.38
2018-02-16T07:57:37.702Z,50.94
2018-02-16T08:00:08.409Z,49.69
2018-02-16T08:02:38.253Z,50.18
2018-02-16T08:05:08.569Z,50.99
2018-02-16T08:07:38.992Z,51.90
2018-02-16T08:10:08.891Z,50.47
2018-02-16T08:12:38.510Z,49.77
2018-02-16T08:15:16.137Z,49.95
2018-02-16T08:17:46.028Z,50.32
2018-02-16T08:20:16.237Z,50.12
2018-02-16T08:22:46.161Z,51.11
2018-02-16T08:25:15.844Z,51.23
2018-02-16T08:27:46.409Z,49.66
2018-02-16T08:30:16.404Z,50.26
2018-02-16T08:32:46.393Z,49.76
2018-02-16T08:35:16.098Z,50.16
2018-02-16T08:37:46.809Z,50.75
2018-02-16T08:40:17.557Z,50.34
2018-02-16T08:42:48.146Z,47.94
2018-02-16T08:45:19.565Z,47.62
2018-02-16T08:47:49.283Z,48.43
2018-02-16T08:50:20.338Z,48.49
2018-02-16T08:52:50.819Z,49.07
2018-02-16T08:55:21.390Z,49.60
2018-02-16T08:57:51.981Z,49.69
2018-02-16T09:00:22.671Z,50.25
2018-02-16T09:02:52.212Z,49.34
2018-02-16T09:05:22.174Z,49.48
2018-02-16T09:07:52.356Z,49.43
2018-02-16T09:10:22.757Z,48.68
2018-02-16T09:12:52.584Z,48.83
2018-02-16T09:15:22.340Z,47.51
2018-02-16T09:17:58.368Z,47.30
2018-02-16T09:20:32.643Z,48.56
2018-02-16T09:23:04.186Z,47.29
2018-02-16T09:32:10.688Z,45.20
2018-02-16T09:45:17.636Z,45.59
2018-02-16T09:50:53.693Z,43.83
2018-02-16T10:12:53.998Z,44.46
2018-02-16T10:15:23.404Z,42.55
2018-02-16T10:17:52.746Z,41.67
2018-02-16T10:20:22.663Z,41.69
2018-02-16T10:22:52.246Z,41.02
2018-02-16T10:25:21.986Z,41.98
2018-02-16T10:27:51.558Z,42.57
2018-02-16T10:30:21.328Z,42.59
2018-02-16T10:32:50.766Z,42.43
2018-02-16T10:35:20.441Z,40.69
2018-02-16T10:37:50.334Z,39.51
2018-02-16T10:40:20.147Z,39.88
2018-02-16T10:42:49.764Z,41.44
2018-02-16T10:45:19.464Z,41.78
2018-02-16T10:47:49.142Z,42.17
2018-02-16T10:50:18.511Z,42.33
2018-02-16T10:52:48.073Z,41.26
2018-02-16T10:55:18.052Z,40.27
2018-02-16T10:57:47.923Z,39.97
2018-02-16T11:00:18.942Z,40.26
2018-02-16T11:02:54.047Z,41.12
2018-02-16T11:05:23.951Z,42.31
2018-02-16T11:07:53.642Z,41.32
2018-02-16T11:10:23.706Z,40.86
2018-02-16T11:13:08.595Z,41.52
2018-02-16T11:16:03.192Z,41.22
2018-02-16T11:18:33.453Z,40.79
2018-02-16T11:21:03.327Z,39.56
2018-02-16T11:23:59.647Z,40.14
2018-02-16T11:26:35.697Z,39.87
2018-02-16T11:29:07.078Z,39.48
2018-02-16T11:31:40.234Z,40.10
2018-02-16T11:34:13.093Z,39.76
2018-02-16T11:36:45.437Z,40.53
2018-02-16T11:39:20.111Z,40.30
2018-02-16T11:41:51.519Z,40.81
2018-02-16T11:44:21.032Z,41.18
2018-02-16T11:46:52.915Z,40.67
2018-02-16T11:49:25.445Z,40.50
2018-02-16T11:51:55.044Z,40.37
2018-02-16T11:54:24.765Z,40.18
2018-02-16T11:56:55.167Z,40.44
2018-02-16T11:59:24.573Z,40.47
2018-02-16T12:01:57.718Z,40.92
2018-02-16T12:04:35.138Z,40.60
2018-02-16T12:09:54.509Z,39.26
2018-02-16T12:12:24.056Z,39.42
2018-02-16T12:14:53.698Z,39.15
2018-02-16T12:17:24.443Z,39.44
2018-02-16T12:19:55.534Z,40.06
2018-02-16T12:22:24.997Z,39.46
2018-02-16T12:24:55.211Z,39.78
2018-02-16T12:27:24.988Z,39.60
2018-02-16T12:43:37.349Z,38.55
2018-02-16T12:46:14.568Z,37.56
2018-02-16T12:48:44.138Z,37.41
2018-02-16T12:51:20.854Z,37.71
2018-02-16T12:53:51.171Z,37.58
2018-02-16T12:56:21.209Z,37.89
2018-02-16T12:58:51.113Z,38.09
2018-02-16T13:01:22.544Z,38.23
2018-02-16T13:03:52.199Z,36.72
2018-02-16T13:06:22.104Z,36.49
2018-02-16T13:08:53.708Z,36.35
2018-02-16T13:11:25.188Z,37.09
2018-02-16T13:14:02.358Z,37.72
2018-02-16T13:16:31.977Z,37.11
2018-02-16T13:19:03.088Z,37.78
2018-02-16T13:24:34.029Z,37.83
2018-02-16T13:27:03.958Z,38.11
2018-02-16T13:29:46.333Z,37.51
2018-02-16T13:32:17.719Z,37.82
2018-02-16T13:34:47.853Z,36.79
2018-02-16T13:40:16.183Z,36.78
2018-02-16T13:46:12.240Z,37.17
2018-02-16T14:23:38.800Z,36.65
2018-02-16T14:26:17.678Z,36.54
2018-02-16T14:28:49.668Z,37.79
2018-02-16T14:31:29.388Z,36.53
2018-02-16T14:40:11.836Z,37.21
2018-02-16T14:42:54.854Z,37.82
2018-02-16T14:45:36.258Z,38.47
2018-02-16T14:48:06.666Z,38.57
2018-02-16T14:50:36.279Z,39.60
2018-02-16T14:53:38.513Z,39.28
2018-02-16T14:56:10.149Z,38.79
2018-02-16T14:58:42.783Z,37.77
2018-02-16T15:01:24.354Z,38.43
2018-02-16T15:03:54.577Z,38.23
2018-02-16T15:06:47.806Z,38.55
2018-02-16T15:09:17.675Z,38.66
2018-02-16T15:11:54.633Z,38.40
2018-02-16T15:14:24.355Z,38.12
2018-02-16T15:16:53.966Z,38.18
2018-02-16T15:19:26.053Z,38.01
2018-02-16T15:21:58.237Z,38.87
2018-02-16T15:24:46.034Z,40.11
2018-02-16T15:27:16.117Z,40.63
2018-02-16T15:29:46.610Z,40.01
2018-02-16T15:32:16.011Z,39.50
2018-02-16T15:34:52.298Z,40.05
2018-02-16T15:37:21.949Z,39.84
2018-02-16T15:39:51.569Z,40.32
2018-02-16T15:42:20.975Z,41.08
2018-02-16T15:44:50.880Z,41.51
2018-02-16T15:47:20.254Z,40.95
2018-02-16T15:53:18.416Z,41.73
2018-02-16T15:59:13.663Z,42.92
2018-02-16T16:01:53.501Z,42.65
2018-02-16T16:07:36.161Z,43.36
2018-02-16T16:10:13.489Z,44.08
2018-02-16T16:12:58.697Z,44.29
2018-02-16T16:15:49.979Z,44.20
2018-02-16T16:18:36.655Z,43.78
2018-02-16T16:24:40.758Z,44.53
2018-02-16T16:27:20.333Z,44.94
2018-02-16T16:33:29.569Z,44.65
2018-02-16T16:36:18.747Z,44.71
2018-02-16T16:39:42.714Z,45.16
2018-02-16T16:42:17.637Z,45.77
2018-02-16T16:44:50.060Z,45.81
2018-02-16T16:47:28.290Z,45.50
2018-02-16T16:57:07.533Z,49.12
2018-02-16T16:59:37.198Z,48.83
2018-02-16T17:04:47.756Z,49.29
2018-02-16T17:07:18.389Z,48.97
2018-02-16T17:09:47.856Z,49.13
2018-02-16T17:15:43.918Z,51.29
2018-02-16T17:22:13.277Z,53.04
2018-02-16T17:24:47.214Z,52.94
2018-02-16T17:27:18.596Z,53.47
2018-02-16T17:32:59.577Z,51.21
